Latest Weather Observations for Thursday Island

IDQ60801

Issued at 10:02 pm EST Thursday 22 June 2017 (issued every 30 minutes, with the page automatically refreshed every 10 minutes)

About weather observations | Map of weather stations | Latest weather observations for QLD | Other Formats
Station Details ID: 200892 Name: TORRES STRAIT NTC AWS Lat: -10.59 Lon: 142.22 Height: 3.0 m
Data from the previous 72 hours. | See also: Recent months for locations in Queensland
Date/Time
EST
Temp
°C
App
Temp
°C
Dew
Point
°C
Rel
Hum
%
Delta-T
°C
Wind Press
QNH
hPa
Press
MSL
hPa
Rain since
9am
mm
Dir  Spd
km/h
Gust
km/h
Spd
kts
Gust
kts
22/10:00pm 24.7 - - - - SE 30 39 16 21 1013.3 1013.3 -
22/09:30pm 24.1 - - - - SE 26 33 14 18 1013.3 1013.3 -
22/09:00pm 24.8 - - - - SE 30 37 16 20 1013.1 1013.1 -
22/08:30pm 24.9 - - - - SE 33 43 18 23 1013.0 1013.0 -
22/08:00pm 25.0 - - - - SE 30 39 16 21 1012.7 1012.7 -
22/07:30pm 24.8 - - - - SE 26 32 14 17 1012.3 1012.3 -
22/07:00pm 25.6 - - - - SE 33 43 18 23 1011.9 1011.9 -
22/06:30pm 25.8 - - - - SE 32 43 17 23 1011.7 1011.7 -
22/06:00pm 25.9 - - - - SE 33 48 18 26 1011.3 1011.3 -
22/05:54pm 25.9 - - - - SE 30 48 16 26 1011.3 1011.3 -
22/05:30pm 25.9 - - - - ESE 33 44 18 24 1011.0 1011.0 -
22/05:00pm 25.8 - - - - SE 41 52 22 28 1010.8 1010.8 -
22/04:30pm 26.2 - - - - ESE 37 50 20 27 1010.6 1010.6 -
22/04:00pm 26.2 - - - - ESE 37 50 20 27 1010.5 1010.5 -
22/03:30pm 25.8 - - - - ESE 35 44 19 24 1010.6 1010.6 -
22/03:09pm 25.5 - - - - ESE 39 59 21 32 1010.7 1010.7 -
22/03:00pm 26.4 - - - - ESE 35 52 19 28 1010.6 1010.6 -
22/02:30pm 26.3 - - - - ESE 39 52 21 28 1010.8 1010.8 -
22/02:00pm 26.6 - - - - ESE 43 54 23 29 1011.0 1011.0 -
22/01:30pm 26.4 - - - - ESE 41 52 22 28 1011.3 1011.3 -
22/01:00pm 26.1 - - - - ESE 43 56 23 30 1011.6 1011.6 -
22/12:31pm 26.5 - - - - SE 39 63 21 34 1011.9 1011.9 -
22/12:30pm 26.5 - - - - SE 39 54 21 29 1011.9 1011.9 -
22/12:00pm 25.6 - - - - SE 37 48 20 26 1012.2 1012.2 -
22/11:30am 26.2 - - - - ESE 37 54 20 29 1012.4 1012.4 -
22/11:00am 26.0 - - - - SE 37 46 20 25 1012.7 1012.7 -
22/10:46am 25.9 - - - - ESE 41 59 22 32 1012.9 1012.9 -
22/10:30am 26.2 - - - - SE 33 46 18 25 1013.0 1013.0 -
22/10:00am 26.1 - - - - SE 32 44 17 24 1013.3 1013.3 -
22/09:30am 25.9 - - - - SE 30 41 16 22 1013.4 1013.4 -
22/09:00am 25.6 - - - - SE 32 39 17 21 1013.4 1013.4 -
22/08:30am 25.1 - - - - SE 26 35 14 19 1013.4 1013.4 -
22/08:00am 25.3 - - - - SE 22 30 12 16 1012.9 1012.9 -
22/07:30am 25.2 - - - - SE 24 37 13 20 1012.8 1012.8 -
22/07:00am 25.2 - - - - SE 26 37 14 20 1012.5 1012.5 -
22/06:30am 25.3 - - - - SE 24 32 13 17 1012.3 1012.3 -
22/06:00am 25.3 - - - - SE 24 33 13 18 1012.3 1012.3 -
22/05:30am 25.3 - - - - SE 24 33 13 18 1012.3 1012.3 -
22/05:00am 25.3 - - - - SE 22 28 12 15 1012.2 1012.2 -
22/04:30am 25.5 - - - - ESE 28 35 15 19 1012.0 1012.0 -
22/04:00am 25.4 - - - - SE 20 26 11 14 1011.8 1011.8 -
22/03:30am 25.4 - - - - SE 26 39 14 21 1011.8 1011.8 -
22/03:00am 25.3 - - - - SE 24 32 13 17 1012.1 1012.1 -
22/02:30am 25.5 - - - - ESE 30 39 16 21 1012.3 1012.3 -
22/02:00am 25.6 - - - - ESE 28 39 15 21 1012.3 1012.3 -
22/01:30am 25.4 - - - - ESE 28 39 15 21 1012.7 1012.7 -
22/01:00am 25.4 - - - - SE 28 35 15 19 1012.9 1012.9 -
22/12:30am 25.3 - - - - SE 28 35 15 19 1013.1 1013.1 -
22/12:00am 25.3 - - - - SE 24 33 13 18 1013.3 1013.3 -
 
Date/Time
EST
Temp
°C
App
Temp
°C
Dew
Point
°C
Rel
Hum
%
Delta-T
°C
Wind Press
QNH
hPa
Press
MSL
hPa
Rain since
9am
mm
Dir  Spd
km/h
Gust
km/h
Spd
kts
Gust
kts
21/11:30pm 25.2 - - - - SE 22 32 12 17 1013.7 1013.7 -
21/11:00pm 25.3 - - - - SE 26 35 14 19 1013.8 1013.8 -
21/10:30pm 25.4 - - - - SE 26 33 14 18 1013.8 1013.8 -
21/10:00pm 25.3 - - - - SE 26 33 14 18 1013.9 1013.9 -
21/09:30pm 25.4 - - - - SE 28 37 15 20 1013.7 1013.7 -
21/09:00pm 25.4 - - - - SE 30 37 16 20 1013.5 1013.5 -
21/08:30pm 25.5 - - - - SE 32 41 17 22 1013.3 1013.3 -
21/08:00pm 25.5 - - - - SE 32 43 17 23 1012.9 1012.9 -
21/07:30pm 25.6 - - - - SE 32 39 17 21 1012.5 1012.5 -
21/07:00pm 25.7 - - - - SE 35 44 19 24 1012.0 1012.0 -
21/06:30pm 25.8 - - - - SE 33 44 18 24 1011.6 1011.6 -
21/06:00pm 26.0 - - - - SE 35 44 19 24 1011.4 1011.4 -
21/05:30pm 26.2 - - - - SE 35 46 19 25 1011.2 1011.2 -
21/05:00pm 26.4 - - - - SE 39 54 21 29 1011.0 1011.0 -
21/04:30pm 26.5 - - - - SE 39 52 21 28 1010.8 1010.8 -
21/04:00pm 26.4 - - - - SE 39 50 21 27 1010.7 1010.7 -
21/03:30pm 26.4 - - - - SE 41 50 22 27 1010.7 1010.7 -
21/03:00pm 26.6 - - - - SE 41 54 22 29 1011.0 1011.0 -
21/02:30pm 26.5 - - - - ESE 37 50 20 27 1010.9 1010.9 -
21/02:00pm 26.7 - - - - SE 39 50 21 27 1011.2 1011.2 -
21/01:30pm 26.3 - - - - SE 35 46 19 25 1011.6 1011.6 -
21/01:00pm 26.3 - - - - SE 32 44 17 24 1012.0 1012.0 -
21/12:54pm 26.1 - - - - ESE 39 57 21 31 1012.0 1012.0 -
21/12:47pm 26.4 - - - - ESE 41 57 22 31 1012.1 1012.1 -
21/12:30pm 26.3 - - - - SE 30 39 16 21 1012.2 1012.2 -
21/12:00pm 25.3 - - - - ESE 33 46 18 25 1012.9 1012.9 -
21/11:30am 25.2 - - - - SE 37 52 20 28 1013.1 1013.1 -
21/11:00am 26.3 - - - - ESE 33 44 18 24 1013.0 1013.0 -
21/10:50am 26.3 - - - - SE 30 48 16 26 1013.1 1013.1 -
21/10:30am 26.2 - - - - SE 26 33 14 18 1013.1 1013.1 -
21/10:00am 25.9 - - - - SE 33 43 18 23 1013.5 1013.5 -
21/09:30am 25.6 - - - - SE 28 37 15 20 1013.5 1013.5 -
21/09:00am 25.3 - - - - SE 24 32 13 17 1013.5 1013.5 -
21/08:30am 25.3 - - - - SE 26 33 14 18 1013.4 1013.4 -
21/08:00am 25.1 - - - - SE 26 35 14 19 1012.9 1012.9 -
21/07:30am 25.2 - - - - SSE 26 32 14 17 1012.6 1012.6 -
21/07:00am 25.0 - - - - SE 22 32 12 17 1012.2 1012.2 -
21/06:30am 24.9 - - - - SE 24 28 13 15 1011.9 1011.9 -
21/06:00am 24.9 - - - - SE 24 32 13 17 1011.7 1011.7 -
21/05:30am 25.0 - - - - SE 28 35 15 19 1011.5 1011.5 -
21/05:00am 24.9 - - - - SE 26 33 14 18 1011.5 1011.5 -
21/04:30am 24.6 - - - - SE 26 35 14 19 1011.4 1011.4 -
21/04:00am 24.5 - - - - SE 26 33 14 18 1011.6 1011.6 -
21/03:30am 24.9 - - - - SE 30 39 16 21 1011.5 1011.5 -
21/03:00am 24.8 - - - - SSE 28 37 15 20 1011.6 1011.6 -
21/02:30am 24.9 - - - - SE 32 41 17 22 1011.8 1011.8 -
21/02:00am 25.3 - - - - SE 30 39 16 21 1011.9 1011.9 -
21/01:30am 25.4 - - - - SE 32 41 17 22 1012.1 1012.1 -
21/01:00am 25.4 - - - - SE 30 39 16 21 1012.3 1012.3 -
21/12:30am 25.5 - - - - SE 30 41 16 22 1012.4 1012.4 -
21/12:00am 25.6 - - - - SE 32 39 17 21 1012.4 1012.4 -
 
Date/Time
EST
Temp
°C
App
Temp
°C
Dew
Point
°C
Rel
Hum
%
Delta-T
°C
Wind Press
QNH
hPa
Press
MSL
hPa
Rain since
9am
mm
Dir  Spd
km/h
Gust
km/h
Spd
kts
Gust
kts
20/11:30pm 25.6 - - - - SE 33 41 18 22 1012.4 1012.4 -
20/11:00pm 25.6 - - - - SE 32 43 17 23 1012.4 1012.4 -
20/10:30pm 25.6 - - - - SE 35 44 19 24 1012.3 1012.3 -
20/10:00pm 25.7 - - - - SE 35 44 19 24 1012.4 1012.4 -
20/09:30pm 25.7 - - - - SE 33 46 18 25 1012.3 1012.3 -
20/09:00pm 25.6 - - - - SE 33 43 18 23 1011.9 1011.9 -
20/08:30pm 25.4 - - - - SE 37 54 20 29 1011.7 1011.7 -
20/08:00pm 25.3 - - - - SE 33 43 18 23 1011.3 1011.3 -
20/07:30pm 25.6 - - - - SE 37 50 20 27 1011.0 1011.0 -
20/07:00pm 25.7 - - - - SE 30 41 16 22 1010.8 1010.8 -
20/06:30pm 25.8 - - - - SE 32 41 17 22 1010.6 1010.6 -
20/06:00pm 25.9 - - - - SE 30 39 16 21 1010.4 1010.4 -
20/05:30pm 26.2 - - - - SE 30 37 16 20 1010.2 1010.2 -
20/05:00pm 26.4 - - - - SE 33 44 18 24 1010.1 1010.1 -
20/04:30pm 26.8 - - - - SE 30 41 16 22 1010.1 1010.1 -
20/04:00pm 26.8 - - - - SE 35 44 19 24 1010.0 1010.0 -
20/03:30pm 27.0 - - - - SE 35 48 19 26 1010.0 1010.0 -
20/03:00pm 27.1 - - - - ESE 39 48 21 26 1009.9 1009.9 -
20/02:30pm 26.8 - - - - SE 35 50 19 27 1010.2 1010.2 -
20/02:00pm 27.2 - - - - ESE 35 50 19 27 1010.4 1010.4 -
20/01:30pm 27.2 - - - - ESE 39 50 21 27 1010.6 1010.6 -
20/01:00pm 27.3 - - - - SE 39 52 21 28 1011.0 1011.0 -
20/12:30pm 27.3 - - - - SE 37 50 20 27 1011.5 1011.5 -
20/12:00pm 27.0 - - - - SE 37 50 20 27 1011.8 1011.8 -
20/11:30am 27.0 - - - - SE 39 48 21 26 1012.1 1012.1 -
20/11:00am 26.9 - - - - SE 39 52 21 28 1012.3 1012.3 -
20/10:30am 26.7 - - - - ESE 35 50 19 27 1012.4 1012.4 -
20/10:00am 26.4 - - - - SE 35 46 19 25 1012.7 1012.7 -
20/09:30am 26.2 - - - - SE 33 43 18 23 1012.7 1012.7 -
20/09:00am 26.0 - - - - SE 26 33 14 18 1012.5 1012.5 -
20/08:30am 25.6 - - - - SE 20 28 11 15 1012.4 1012.4 -
20/08:00am 25.0 - - - - SE 24 33 13 18 1012.1 1012.1 -
20/07:30am 25.4 - - - - SE 22 32 12 17 1011.8 1011.8 -
20/07:00am 25.4 - - - - SE 20 24 11 13 1011.6 1011.6 -
20/06:30am 25.3 - - - - SE 26 35 14 19 1011.4 1011.4 -
20/06:00am 25.1 - - - - SE 26 33 14 18 1011.1 1011.1 -
20/05:30am 25.3 - - - - SE 28 37 15 20 1011.0 1011.0 -
20/05:00am 25.3 - - - - SE 28 35 15 19 1010.9 1010.9 -
20/04:30am 25.3 - - - - SE 26 33 14 18 1010.8 1010.8 -
20/04:00am 25.3 - - - - SE 26 33 14 18 1011.1 1011.1 -
20/03:30am 25.5 - - - - SE 26 35 14 19 1011.2 1011.2 -
20/03:00am 25.4 - - - - SE 26 33 14 18 1011.3 1011.3 -
20/02:30am 25.4 - - - - SE 30 39 16 21 1011.7 1011.7 -
20/02:00am 25.4 - - - - SE 28 39 15 21 1011.7 1011.7 -
20/01:30am 25.5 - - - - SE 26 33 14 18 1011.9 1011.9 -
20/01:00am 25.6 - - - - SE 26 39 14 21 1012.1 1012.1 -
20/12:30am 25.5 - - - - SE 28 41 15 22 1012.0 1012.0 -
20/12:00am 25.7 - - - - SE 30 37 16 20 1012.2 1012.2 -
 
Date/Time
EST
Temp
°C
App
Temp
°C
Dew
Point
°C
Rel
Hum
%
Delta-T
°C
Wind Press
QNH
hPa
Press
MSL
hPa
Rain since
9am
mm
Dir  Spd
km/h
Gust
km/h
Spd
kts
Gust
kts
19/11:30pm 25.6 - - - - SE 30 37 16 20 1012.5 1012.5 -
19/11:00pm 25.6 - - - - SE 26 37 14 20 1012.6 1012.6 -
19/10:30pm 25.7 - - - - SE 33 43 18 23 1012.8 1012.8 -

Other Formats:

Comma delimited format used in spreadsheet applications
http://www.bom.gov.au/fwo/IDQ60801/IDQ60801.94181.axf

JavaScript Object Notation format (JSON) in row-major order
http://www.bom.gov.au/fwo/IDQ60801/IDQ60801.94181.json